Oak Grove, Minnesota
Current Conditions -  °F | °C
As of 1:14 AM on Friday 31 Oct 2014 (Local Time) from KANE Reporting Station
Clear Clear  
Wind Chill: 21°   Ceiling: Unl
Heat Index: 30°   Visibility: 10mi
Dew Point: 18°   Wind: 12mph
Humidity: 60%   Direction: 330°NNW
Pressure: 30.4"   Gusts: NA
Location:  45.2924°N, 93.4325°W
Report Text: KANE 310614Z AUTO 33010KT 10SM CLR M01/M08 A3040 RMK AO2
Loading
Personal Weather Stations






























Interactive Weather Map
Tropical Storm Tracking
New forecast layout! Learn more

10-Day Weather Forecast

Advertisements
Track Severe Weather on mobile